Time;durP1;ratioP1;P1;durP2;ratioP2;P2;SDS_P1;SDS_P2;PMS_P1;PMS_P2;Temp;Humidity;BMP_temperature;BMP_pressure;BME280_temperature;BME280_humidity;BME280_pressure;Samples;Min_cycle;Max_cycle;Signal;HPM_P1;HPM_P2
2021/03/25 00:02:13;;;;;;;59.73;31.05;;;;;;;7.15;58.96;99602.69;248516;1158;115103;-73
2021/03/25 00:07:15;;;;;;;59.80;31.23;;;;;;;7.11;58.88;99595.80;248786;1153;114835;-73
2021/03/25 00:12:18;;;;;;;52.68;29.45;;;;;;;7.08;59.06;99595.91;248626;1154;114800;-73
2021/03/25 00:17:21;;;;;;;58.83;30.75;;;;;;;7.07;59.26;99588.91;248660;1153;114524;-71
2021/03/25 00:22:24;;;;;;;55.90;30.28;;;;;;;7.05;58.54;99588.09;248560;1162;114399;-71
2021/03/25 00:27:27;;;;;;;55.68;30.00;;;;;;;7.04;58.50;99583.72;248533;1152;114477;-74
2021/03/25 00:32:30;;;;;;;64.13;31.73;;;;;;;7.00;59.22;99582.13;248534;1154;114702;-69
2021/03/25 00:37:33;;;;;;;54.85;30.30;;;;;;;6.97;59.23;99580.45;248490;1155;114816;-75
2021/03/25 00:42:39;;;;;;;;;;;;;;;6.94;59.07;99588.51;248590;1162;114610;-74
2021/03/25 00:47:43;;;;;;;57.88;29.80;;;;;;;6.89;59.37;99582.52;248597;1161;100896;-73
2021/03/25 00:52:46;;;;;;;;;;;;;;;6.88;59.46;99580.80;248563;1161;114964;-71
2021/03/25 00:57:49;;;;;;;54.55;28.90;;;;;;;6.87;59.28;99581.73;248876;1152;101318;-71
2021/03/25 01:02:53;;;;;;;57.70;30.08;;;;;;;6.86;59.48;99578.23;248717;1154;114434;-69
2021/03/25 01:07:56;;;;;;;59.23;30.75;;;;;;;6.84;59.39;99574.77;248634;1155;114561;-70
2021/03/25 01:13:01;;;;;;;55.05;30.00;;;;;;;6.80;59.11;99565.22;248661;1159;114646;-72
2021/03/25 01:18:07;;;;;;;55.53;31.20;;;;;;;6.79;59.59;99563.52;248552;1154;117760;-71
2021/03/25 01:23:13;;;;;;;57.27;30.17;;;;;;;6.79;58.99;99568.80;248585;1154;114687;-73
2021/03/25 01:28:17;;;;;;;;;;;;;;;6.76;59.70;99568.91;245502;1158;114805;-73
2021/03/25 01:33:43;;;;;;;49.58;27.18;;;;;;;6.72;59.71;99559.34;248847;1154;100877;-72
2021/03/25 01:38:47;;;;;;;55.15;29.13;;;;;;;6.71;59.01;99552.34;248314;1154;115298;-73
2021/03/25 01:43:57;;;;;;;59.98;32.50;;;;;;;6.70;59.47;99552.41;248565;1154;115277;-76
2021/03/25 01:49:06;;;;;;;60.90;33.37;;;;;;;6.66;59.90;99546.38;245653;1154;115392;-76
2021/03/25 01:54:28;;;;;;;66.03;33.93;;;;;;;6.64;59.91;99543.78;248519;1162;114662;-79
2021/03/25 01:59:58;;;;;;;60.95;33.23;;;;;;;6.58;59.33;99548.44;248630;1154;115015;-82
2021/03/25 02:05:17;;;;;;;63.10;32.95;;;;;;;6.54;59.88;99541.54;248728;1159;115162;-72
2021/03/25 02:10:47;;;;;;;63.55;34.20;;;;;;;6.49;60.13;99544.37;248731;1159;115294;-75
2021/03/25 02:16:15;;;;;;;67.08;35.58;;;;;;;6.47;60.01;99529.47;248022;1154;114443;-76
2021/03/25 02:21:42;;;;;;;65.55;35.23;;;;;;;6.46;59.50;99535.69;248598;1154;115291;-72
2021/03/25 02:26:51;;;;;;;70.05;37.73;;;;;;;6.43;60.14;99526.08;244219;1154;114909;-74
2021/03/25 02:32:00;;;;;;;77.83;38.55;;;;;;;6.42;60.29;99526.13;248582;1154;114551;-70
2021/03/25 02:37:26;;;;;;;70.83;38.18;;;;;;;6.38;59.58;99528.88;248655;1154;114939;-72
2021/03/25 02:42:39;;;;;;;72.95;39.40;;;;;;;6.36;60.06;99528.09;248540;1154;116627;-75
2021/03/25 02:47:52;;;;;;;86.18;44.20;;;;;;;6.37;60.14;99519.23;248363;1159;114536;-78
2021/03/25 02:53:07;;;;;;;82.70;41.90;;;;;;;6.43;60.35;99530.52;248596;1154;114695;-77
2021/03/25 02:58:19;;;;;;;80.47;42.30;;;;;;;6.46;60.34;99525.97;248499;1161;114903;-77
2021/03/25 03:03:35;;;;;;;86.45;44.38;;;;;;;6.51;59.88;99523.14;248599;1153;115177;-77
2021/03/25 03:08:56;;;;;;;77.48;41.53;;;;;;;6.47;59.62;99527.69;248744;1153;115023;-75
2021/03/25 03:14:09;;;;;;;75.70;40.78;;;;;;;6.44;59.82;99526.94;248522;1154;114826;-76
2021/03/25 03:19:27;;;;;;;81.05;42.05;;;;;;;6.44;59.57;99526.94;248671;1153;115105;-72
2021/03/25 03:24:40;;;;;;;81.30;43.48;;;;;;;6.41;60.28;99527.91;248521;1161;114902;-73
2021/03/25 03:30:16;;;;;;;82.53;42.35;;;;;;;6.36;60.50;99522.80;246970;1162;114807;-74
2021/03/25 03:35:34;;;;;;;81.63;44.15;;;;;;;6.31;60.20;99521.23;247753;1154;114552;-68
2021/03/25 03:40:41;;;;;;;78.03;43.80;;;;;;;6.26;60.56;99518.78;248797;1153;115009;-68
2021/03/25 03:46:23;;;;;;;80.50;42.98;;;;;;;6.25;60.66;99511.77;248641;1154;114753;-67
2021/03/25 03:51:31;;;;;;;72.63;42.03;;;;;;;6.22;60.82;99518.95;248534;1155;115104;-67
2021/03/25 03:56:58;;;;;;;83.30;44.60;;;;;;;6.18;60.16;99519.95;248591;1154;114273;-68
2021/03/25 04:02:11;;;;;;;87.55;45.30;;;;;;;6.15;60.80;99519.17;248576;1153;114893;-67
2021/03/25 04:07:22;;;;;;;89.50;47.30;;;;;;;6.15;61.05;99507.75;245748;1154;114885;-67
2021/03/25 04:12:53;;;;;;;93.68;47.73;;;;;;;6.22;61.19;99522.45;248481;1154;114657;-69
2021/03/25 04:18:10;;;;;;;90.65;48.93;;;;;;;6.31;60.41;99516.81;248544;1161;114976;-67
2021/03/25 04:23:40;;;;;;;87.78;48.18;;;;;;;6.33;60.58;99527.34;248147;1154;114860;-70
2021/03/25 04:29:05;;;;;;;84.15;46.40;;;;;;;6.36;60.49;99520.16;248617;1154;114884;-69
2021/03/25 04:34:09;;;;;;;84.67;45.98;;;;;;;6.34;60.62;99524.63;248598;1154;115736;-69
2021/03/25 04:39:16;;;;;;;85.33;46.33;;;;;;;6.33;60.28;99530.84;248760;1154;114947;-68
2021/03/25 04:44:44;;;;;;;83.03;45.80;;;;;;;6.32;61.09;99529.13;248640;1153;114193;-68
2021/03/25 04:49:55;;;;;;;85.30;45.25;;;;;;;6.27;60.94;99536.34;248636;1154;114864;-68
2021/03/25 04:55:24;;;;;;;78.80;44.40;;;;;;;6.24;60.85;99533.81;248554;1154;115219;-68
2021/03/25 05:00:32;;;;;;;83.33;46.00;;;;;;;6.21;60.70;99536.56;248468;1153;114516;-70
2021/03/25 05:05:36;;;;;;;84.43;46.47;;;;;;;6.21;60.44;99541.84;247344;1154;114271;-70
2021/03/25 05:10:56;;;;;;;82.20;45.78;;;;;;;6.20;60.75;99536.64;248388;1153;114822;-70
2021/03/25 05:16:21;;;;;;;88.20;46.78;;;;;;;6.18;61.61;99549.88;248554;1154;114648;-70
2021/03/25 05:21:37;;;;;;;88.80;46.75;;;;;;;6.20;61.36;99539.28;248604;1154;115112;-72
2021/03/25 05:26:49;;;;;;;91.70;48.60;;;;;;;6.21;61.50;99548.92;248571;1154;115268;-71
2021/03/25 05:31:53;;;;;;;96.23;48.80;;;;;;;6.21;61.13;99544.49;248553;1154;114842;-68
2021/03/25 05:36:58;;;;;;;90.85;49.15;;;;;;;6.27;60.97;99552.20;248549;1162;114881;-69
2021/03/25 05:42:54;;;;;;;90.55;49.55;;;;;;;6.34;61.71;99551.06;248625;1154;114755;-69
2021/03/25 05:48:06;;;;;;;88.83;47.85;;;;;;;6.41;61.08;99551.70;247952;1157;115085;-71
2021/03/25 05:53:36;;;;;;;86.85;48.60;;;;;;;6.45;61.07;99557.73;248414;1161;114686;-69
2021/03/25 05:58:52;;;;;;;89.85;49.18;;;;;;;6.49;61.12;99564.63;248530;1154;114906;-70
2021/03/25 06:04:15;;;;;;;84.98;47.28;;;;;;;6.50;61.72;99561.95;247178;1161;114884;-68
2021/03/25 06:09:41;;;;;;;93.08;49.70;;;;;;;6.49;61.08;99560.23;248655;1153;114954;-68
2021/03/25 06:15:25;;;;;;;92.50;49.93;;;;;;;6.52;61.65;99559.23;248509;1154;114954;-69
2021/03/25 06:21:06;;;;;;;93.42;48.38;;;;;;;6.54;61.44;99573.27;247738;1154;116021;-71
2021/03/25 06:26:28;;;;;;;93.80;50.45;;;;;;;6.53;61.13;99564.48;248514;1153;115006;-66
2021/03/25 06:31:48;;;;;;;94.28;49.95;;;;;;;6.54;60.75;99568.84;248546;1161;114649;-73
2021/03/25 06:37:19;;;;;;;92.98;49.65;;;;;;;6.56;61.87;99576.73;248484;1154;114853;-71
2021/03/25 06:42:24;;;;;;;101.80;52.28;;;;;;;6.58;61.75;99575.73;248750;1153;114400;-68
2021/03/25 06:47:54;;;;;;;99.15;53.28;;;;;;;6.62;60.98;99582.66;248489;1154;114877;-68
2021/03/25 06:53:14;;;;;;;100.83;51.43;;;;;;;6.65;61.20;99581.66;247597;1161;114753;-68
2021/03/25 06:58:28;;;;;;;102.40;54.75;;;;;;;6.68;61.41;99586.83;248531;1162;114818;-68
2021/03/25 07:03:31;;;;;;;101.93;55.33;;;;;;;6.75;61.27;99592.76;248738;1153;115036;-68
2021/03/25 07:08:40;;;;;;;104.20;54.40;;;;;;;6.86;61.86;99593.20;248600;1154;118232;-69
2021/03/25 07:13:46;;;;;;;99.57;55.37;;;;;;;6.95;61.25;99587.58;248509;1154;115122;-70
2021/03/25 07:19:04;;;;;;;94.63;50.53;;;;;;;7.01;61.03;99582.05;248525;1152;114857;-70
2021/03/25 07:24:27;;;;;;;104.85;52.65;;;;;;;7.05;61.47;99585.44;248286;1154;114617;-71
2021/03/25 07:29:34;;;;;;;102.97;53.10;;;;;;;7.09;61.33;99587.89;248860;1153;114910;-71
2021/03/25 07:34:47;;;;;;;94.67;52.78;;;;;;;7.13;60.58;99603.66;247232;1159;114852;-69
2021/03/25 07:39:59;;;;;;;102.60;55.53;;;;;;;7.13;60.31;99593.08;248599;1154;114627;-69
2021/03/25 07:45:21;;;;;;;102.83;55.60;;;;;;;7.17;60.53;99595.56;247227;1153;114689;-69
2021/03/25 07:50:29;;;;;;;102.23;55.60;;;;;;;7.16;60.20;99599.11;246393;1153;114758;-71
2021/03/25 07:55:32;;;;;;;110.23;53.90;;;;;;;7.18;60.85;99596.42;248727;1153;115102;-71
2021/03/25 08:00:37;;;;;;;116.68;56.38;;;;;;;7.23;60.69;99592.64;248351;1153;118025;-70
2021/03/25 08:05:43;;;;;;;108.33;56.23;;;;;;;7.30;60.93;99602.10;247769;1154;114924;-69
2021/03/25 08:10:48;;;;;;;110.28;57.25;;;;;;;7.41;60.12;99595.52;248661;1154;114999;-70
2021/03/25 08:15:53;;;;;;;90.18;52.38;;;;;;;7.45;59.81;99589.16;248806;1154;114900;-70
2021/03/25 08:21:13;;;;;;;91.78;52.75;;;;;;;7.49;60.32;99586.31;247306;1160;114730;-70
2021/03/25 08:26:23;;;;;;;94.95;51.25;;;;;;;7.58;60.51;99585.95;246275;1159;114613;-71
2021/03/25 08:31:34;;;;;;;92.00;50.35;;;;;;;7.62;60.27;99580.53;247066;1154;114655;-71
2021/03/25 08:36:48;;;;;;;91.78;53.05;;;;;;;7.70;60.50;99587.22;248546;1154;114819;-72
2021/03/25 08:42:12;;;;;;;94.30;50.05;;;;;;;7.78;59.50;99585.13;248556;1154;114612;-69
2021/03/25 08:47:47;;;;;;;84.30;49.18;;;;;;;7.79;59.63;99592.14;248675;1159;115047;-70
2021/03/25 08:52:55;;;;;;;86.23;50.25;;;;;;;7.79;59.48;99593.94;248110;1154;114680;-71
2021/03/25 08:58:03;;;;;;;88.30;50.40;;;;;;;7.87;59.25;99599.77;248661;1153;114663;-71
2021/03/25 09:03:16;;;;;;;92.15;52.10;;;;;;;7.96;58.46;99596.73;248579;1154;115400;-70
2021/03/25 09:08:21;;;;;;;86.53;50.08;;;;;;;8.05;58.98;99596.36;248410;1154;114850;-68
2021/03/25 09:13:27;;;;;;;84.48;47.23;;;;;;;8.15;58.24;99593.28;248524;1161;115133;-69
2021/03/25 09:18:30;;;;;;;81.35;45.53;;;;;;;8.24;58.34;99582.29;248560;1154;114615;-68
2021/03/25 09:23:34;;;;;;;75.68;43.73;;;;;;;8.31;58.21;99578.44;248543;1153;114728;-67
2021/03/25 09:34:09;;;;;;;75.00;41.38;;;;;;;8.50;57.81;99567.92;248551;1153;114600;-70
2021/03/25 09:39:27;;;;;;;68.08;40.43;;;;;;;8.60;57.60;99566.57;248680;1153;115336;-69
2021/03/25 09:44:35;;;;;;;63.45;38.20;;;;;;;8.70;56.73;99572.33;248707;1153;114625;-69
2021/03/25 09:49:54;;;;;;;62.20;39.18;;;;;;;8.76;56.95;99564.05;248644;1153;115153;-70
2021/03/25 09:54:56;;;;;;;66.45;40.65;;;;;;;8.89;56.90;99561.70;248715;1154;116260;-71
2021/03/25 10:00:08;;;;;;;64.00;38.53;;;;;;;8.96;56.16;99556.02;248790;1159;114744;-71
2021/03/25 10:05:20;;;;;;;64.78;38.60;;;;;;;9.01;56.29;99555.83;248689;1155;114808;-69
2021/03/25 10:10:34;;;;;;;62.78;37.30;;;;;;;9.09;55.85;99553.66;248560;1153;114669;-69
2021/03/25 10:15:49;;;;;;;65.25;38.25;;;;;;;9.21;55.85;99552.23;248720;1153;114774;-67
2021/03/25 10:21:09;;;;;;;64.90;36.73;;;;;;;9.29;55.41;99550.05;248736;1154;115357;-69
2021/03/25 10:26:24;;;;;;;56.40;35.83;;;;;;;9.32;55.43;99552.55;248647;1159;114940;-68
2021/03/25 10:31:38;;;;;;;62.90;36.15;;;;;;;9.41;54.48;99551.27;248773;1153;114840;-67
2021/03/25 10:36:53;;;;;;;50.63;32.10;;;;;;;9.40;54.15;99545.06;248647;1153;115043;-68
2021/03/25 10:41:57;;;;;;;55.20;32.70;;;;;;;9.45;54.47;99548.37;248696;1153;115177;-68
2021/03/25 10:47:24;;;;;;;55.53;33.00;;;;;;;9.54;54.31;99541.72;248625;1154;114803;-67
2021/03/25 10:52:39;;;;;;;58.05;33.88;;;;;;;9.66;54.27;99535.80;248673;1154;115463;-67
2021/03/25 10:57:47;;;;;;;80.88;35.58;;;;;;;9.78;54.03;99538.77;248551;1159;115785;-68
2021/03/25 11:02:50;;;;;;;55.38;33.75;;;;;;;9.86;53.85;99528.63;248743;1153;115187;-69
2021/03/25 11:07:56;;;;;;;60.35;33.75;;;;;;;9.93;53.63;99533.55;248677;1153;115328;-68
2021/03/25 11:13:18;;;;;;;52.90;31.70;;;;;;;10.00;53.51;99525.26;248652;1154;115086;-69
2021/03/25 11:18:37;;;;;;;51.23;30.75;;;;;;;10.01;52.68;99517.19;248641;1159;115097;-68
2021/03/25 11:23:40;;;;;;;51.63;32.48;;;;;;;10.04;52.77;99511.71;248548;1154;115349;-68
2021/03/25 11:28:43;;;;;;;52.10;31.95;;;;;;;10.08;52.48;99512.41;248562;1153;115921;-68
2021/03/25 11:33:48;;;;;;;55.28;34.95;;;;;;;10.10;52.56;99505.22;248547;1153;115697;-68
2021/03/25 11:38:52;;;;;;;49.20;32.70;;;;;;;10.11;51.92;99513.11;248582;1153;115194;-68
2021/03/25 11:43:58;;;;;;;57.67;33.00;;;;;;;10.11;51.85;99507.78;245699;1159;115354;-69
2021/03/25 11:49:09;;;;;;;56.70;34.03;;;;;;;10.09;51.21;99499.05;248638;1154;115584;-68
2021/03/25 11:54:31;;;;;;;52.18;32.13;;;;;;;10.09;51.63;99509.69;248283;1154;115001;-68
2021/03/25 11:59:38;;;;;;;52.88;32.55;;;;;;;10.07;51.58;99503.58;248567;1154;115540;-71
2021/03/25 12:04:42;;;;;;;49.80;31.93;;;;;;;10.02;51.17;99500.31;248516;1154;116264;-71
2021/03/25 12:10:00;;;;;;;59.05;34.35;;;;;;;10.04;51.39;99494.91;248518;1159;115840;-69
2021/03/25 12:15:03;;;;;;;53.28;32.43;;;;;;;10.06;51.25;99498.35;248589;1154;115405;-69
2021/03/25 12:20:17;;;;;;;60.50;35.38;;;;;;;10.14;51.39;99485.50;248590;1154;115299;-70
2021/03/25 12:25:20;;;;;;;54.40;32.85;;;;;;;10.16;51.21;99486.29;248537;1154;114910;-68
2021/03/25 12:30:24;;;;;;;51.28;32.75;;;;;;;10.19;51.01;99486.13;245155;1153;115778;-69
2021/03/25 12:35:27;;;;;;;53.45;34.35;;;;;;;10.21;50.85;99475.39;248529;1161;115135;-69
2021/03/25 12:40:29;;;;;;;56.10;34.40;;;;;;;10.32;51.63;99479.22;248622;1154;115041;-70
2021/03/25 12:45:36;;;;;;;57.95;34.98;;;;;;;10.55;50.53;99472.65;248522;1152;115104;-69
2021/03/25 12:50:39;;;;;;;59.00;34.43;;;;;;;10.76;51.01;99467.08;248473;1154;116615;-70
2021/03/25 12:55:42;;;;;;;59.13;35.20;;;;;;;10.95;50.49;99462.45;248425;1154;114971;-70
2021/03/25 13:00:46;;;;;;;55.70;34.45;;;;;;;11.13;50.55;99452.53;248542;1159;114799;-69
2021/03/25 13:06:04;;;;;;;55.48;35.50;;;;;;;11.46;50.88;99449.72;248585;1154;115099;-70
2021/03/25 13:11:13;;;;;;;52.20;34.15;;;;;;;11.96;50.34;99439.67;248524;1155;115108;-69
2021/03/25 13:16:16;;;;;;;54.33;35.45;;;;;;;12.29;50.12;99429.55;248606;1155;114890;-69
2021/03/25 13:21:22;;;;;;;56.23;34.60;;;;;;;12.55;49.95;99433.24;248573;1154;115041;-69
2021/03/25 13:26:25;;;;;;;52.10;35.60;;;;;;;12.91;49.06;99423.83;248558;1157;115171;-70
2021/03/25 13:31:28;;;;;;;54.80;35.53;;;;;;;13.17;49.45;99422.08;248562;1154;115055;-68
2021/03/25 13:36:31;;;;;;;58.03;36.78;;;;;;;13.43;48.53;99420.38;248597;1153;115433;-70
2021/03/25 13:41:37;;;;;;;54.68;36.00;;;;;;;13.62;48.28;99408.41;248574;1153;115065;-71
2021/03/25 13:46:40;;;;;;;56.18;37.43;;;;;;;13.79;47.93;99409.92;248585;1153;115768;-72
2021/03/25 13:51:43;;;;;;;75.35;45.70;;;;;;;14.71;50.91;99401.61;248573;1161;114554;-70
2021/03/25 13:56:46;;;;;;;79.10;51.00;;;;;;;15.28;49.27;99398.20;248621;1155;115088;-69
2021/03/25 14:02:10;;;;;;;64.18;42.75;;;;;;;15.93;48.39;99388.80;248486;1161;115619;-69
2021/03/25 14:07:24;;;;;;;60.60;38.15;;;;;;;16.08;47.39;99392.09;248418;1154;115201;-70
2021/03/25 14:12:29;;;;;;;54.75;36.98;;;;;;;15.89;46.03;99381.08;248475;1154;115306;-70
2021/03/25 14:17:44;;;;;;;61.50;41.28;;;;;;;15.67;45.93;99382.77;248172;1155;115201;-68
2021/03/25 14:23:14;;;;;;;52.50;36.43;;;;;;;15.36;45.44;99370.83;248493;1154;115207;-69
2021/03/25 14:28:40;;;;;;;54.98;35.55;;;;;;;14.95;45.31;99379.33;248288;1154;117218;-70
2021/03/25 14:33:53;;;;;;;57.85;39.38;;;;;;;14.76;45.58;99371.78;248529;1154;115089;-70
2021/03/25 14:39:14;;;;;;;52.63;36.28;;;;;;;14.60;45.31;99370.22;248447;1156;115119;-68
2021/03/25 14:44:25;;;;;;;54.43;36.80;;;;;;;14.65;45.97;99372.58;248584;1159;115500;-68
2021/03/25 14:49:28;;;;;;;57.83;36.83;;;;;;;14.23;44.59;99372.00;245321;1159;115191;-71
2021/03/25 14:54:31;;;;;;;57.80;35.30;;;;;;;13.77;44.25;99364.58;246358;1153;115494;-70
2021/03/25 14:59:33;;;;;;;57.13;35.70;;;;;;;13.32;43.80;99368.61;248603;1153;114823;-70
2021/03/25 15:04:36;;;;;;;57.53;36.80;;;;;;;12.99;44.50;99370.73;248608;1153;114992;-68
2021/03/25 15:09:42;;;;;;;56.93;36.50;;;;;;;12.76;45.00;99366.05;248606;1159;115039;-69
2021/03/25 15:14:45;;;;;;;59.83;36.60;;;;;;;12.60;45.11;99365.34;248531;1153;114905;-71
2021/03/25 15:19:48;;;;;;;53.28;35.20;;;;;;;12.43;45.21;99359.30;248578;1154;115007;-70
2021/03/25 15:24:55;;;;;;;61.45;36.35;;;;;;;12.32;45.66;99356.45;248415;1154;115485;-68
2021/03/25 15:29:59;;;;;;;55.60;34.60;;;;;;;12.18;44.82;99364.48;248551;1154;115334;-68
2021/03/25 15:35:03;;;;;;;64.15;38.05;;;;;;;12.10;45.87;99364.13;248588;1154;115080;-70
2021/03/25 15:40:07;;;;;;;54.40;34.60;;;;;;;12.06;45.22;99366.13;248629;1154;114842;-70
2021/03/25 15:45:13;;;;;;;60.25;36.90;;;;;;;12.00;45.27;99366.50;248633;1154;115296;-72
2021/03/25 15:50:19;;;;;;;55.58;36.00;;;;;;;11.91;45.19;99367.92;248590;1154;114748;-68
2021/03/25 15:55:26;;;;;;;54.50;35.88;;;;;;;11.86;45.63;99366.52;248573;1154;115170;-68
2021/03/25 16:00:31;;;;;;;58.53;36.05;;;;;;;11.73;46.01;99369.04;248578;1160;114889;-69
2021/03/25 16:05:34;;;;;;;58.90;36.38;;;;;;;11.66;45.81;99368.55;248520;1154;115801;-69
2021/03/25 16:10:37;;;;;;;61.53;35.93;;;;;;;11.56;45.40;99365.59;248614;1154;115003;-70
2021/03/25 16:15:43;;;;;;;57.20;35.80;;;;;;;11.52;45.29;99372.06;248556;1154;115446;-69
2021/03/25 16:20:53;;;;;;;58.00;35.98;;;;;;;11.45;45.34;99370.72;248459;1153;115064;-69
2021/03/25 16:26:01;;;;;;;79.83;48.60;;;;;;;11.88;47.54;99370.78;248439;1162;116427;-71
2021/03/25 16:31:10;;;;;;;55.58;35.85;;;;;;;12.20;46.82;99370.59;248484;1154;120523;-70
2021/03/25 16:36:13;;;;;;;58.03;36.00;;;;;;;12.04;46.03;99374.20;248546;1154;115395;-67
2021/03/25 16:41:16;;;;;;;66.78;38.75;;;;;;;11.86;45.85;99375.36;247267;1157;115622;-72
2021/03/25 16:46:19;;;;;;;61.68;38.38;;;;;;;11.67;45.58;99380.08;248534;1154;115452;-70
2021/03/25 16:51:22;;;;;;;61.58;36.58;;;;;;;11.45;46.30;99376.05;245987;1158;115376;-71
2021/03/25 16:56:25;;;;;;;62.20;39.75;;;;;;;11.21;46.17;99374.83;247297;1159;115161;-70
2021/03/25 17:01:34;;;;;;;64.33;39.50;;;;;;;11.02;45.97;99378.59;248520;1153;115107;-72
2021/03/25 17:06:47;;;;;;;65.48;38.38;;;;;;;10.85;46.09;99384.03;244727;1154;115199;-71
2021/03/25 17:11:52;;;;;;;60.03;38.68;;;;;;;10.71;46.46;99383.98;248510;1154;114811;-71
2021/03/25 17:16:55;;;;;;;63.13;38.33;;;;;;;10.54;46.90;99387.59;248706;1159;115204;-70
2021/03/25 17:21:58;;;;;;;68.00;41.60;;;;;;;10.42;46.69;99400.61;248776;1153;114933;-69
2021/03/25 17:27:01;;;;;;;63.23;38.15;;;;;;;10.28;46.91;99397.02;248645;1153;115102;-70
2021/03/25 17:32:04;;;;;;;72.98;40.58;;;;;;;10.13;47.02;99404.01;248588;1154;115535;-69
2021/03/25 17:37:07;;;;;;;63.05;39.43;;;;;;;10.03;47.40;99406.30;248723;1154;115001;-69
2021/03/25 17:42:10;;;;;;;72.60;41.13;;;;;;;9.88;47.22;99410.65;248744;1153;115219;-69
2021/03/25 17:47:12;;;;;;;69.03;40.13;;;;;;;9.73;47.37;99415.91;248754;1159;114716;-70
2021/03/25 17:52:15;;;;;;;64.45;39.15;;;;;;;9.59;48.09;99417.48;248585;1159;115316;-69
2021/03/25 17:57:18;;;;;;;69.95;39.33;;;;;;;9.51;47.85;99422.34;248672;1155;115070;-69
2021/03/25 18:02:21;;;;;;;67.33;39.55;;;;;;;9.39;48.15;99429.13;248670;1154;114913;-69
2021/03/25 18:07:24;;;;;;;71.20;40.70;;;;;;;9.26;48.49;99429.83;248652;1159;114647;-69
2021/03/25 18:12:26;;;;;;;66.88;40.73;;;;;;;9.11;48.81;99427.02;248603;1159;115663;-69
2021/03/25 18:17:29;;;;;;;71.43;41.03;;;;;;;9.00;48.43;99437.28;248331;1155;114635;-67
2021/03/25 18:22:33;;;;;;;73.60;41.70;;;;;;;8.89;48.83;99439.61;248647;1154;114415;-68
2021/03/25 18:27:36;;;;;;;68.03;39.60;;;;;;;8.79;48.86;99446.30;248532;1153;114691;-68
2021/03/25 18:32:39;;;;;;;74.30;41.73;;;;;;;8.71;49.23;99444.88;248490;1154;114823;-69
2021/03/25 18:37:42;;;;;;;75.83;42.28;;;;;;;8.65;49.16;99444.31;248656;1159;114679;-66
2021/03/25 18:42:45;;;;;;;83.05;44.23;;;;;;;8.56;50.07;99445.63;248654;1152;114889;-67
2021/03/25 18:47:48;;;;;;;74.60;42.65;;;;;;;8.47;49.53;99454.00;248188;1153;114395;-69
2021/03/25 18:52:52;;;;;;;81.58;44.50;;;;;;;8.40;49.73;99452.57;246258;1152;115113;-70
2021/03/25 18:57:56;;;;;;;75.20;41.88;;;;;;;8.30;49.97;99460.91;248645;1159;114835;-70
2021/03/25 19:03:04;;;;;;;87.43;44.60;;;;;;;8.22;49.98;99459.52;246238;1153;114670;-68
2021/03/25 19:08:10;;;;;;;92.72;47.90;;;;;;;8.12;50.28;99459.11;248612;1154;115489;-68
2021/03/25 19:13:15;;;;;;;108.53;49.35;;;;;;;8.03;50.59;99465.67;248588;1153;114669;-68
2021/03/25 19:18:22;;;;;;;95.68;49.70;;;;;;;7.97;51.15;99462.43;248571;1153;115313;-66
2021/03/25 19:23:26;;;;;;;87.70;49.63;;;;;;;7.90;50.66;99464.49;248572;1159;203666;-69
2021/03/25 19:28:32;;;;;;;91.20;49.28;;;;;;;7.81;51.74;99465.78;248525;1154;114851;-68
2021/03/25 19:33:38;;;;;;;96.95;50.48;;;;;;;7.73;51.83;99478.48;248598;1154;114990;-66
2021/03/25 19:38:47;;;;;;;97.85;51.15;;;;;;;7.64;51.13;99480.66;248580;1154;114663;-69
2021/03/25 19:44:08;;;;;;;95.83;54.43;;;;;;;7.56;51.47;99478.34;248709;1154;115200;-69
2021/03/25 19:49:28;;;;;;;100.95;54.38;;;;;;;7.48;51.73;99478.68;248535;1162;114985;-69
2021/03/25 19:54:50;;;;;;;98.20;53.50;;;;;;;7.39;51.85;99483.50;248507;1155;115055;-71
2021/03/25 19:59:55;;;;;;;103.28;53.63;;;;;;;7.30;52.86;99484.73;248279;1154;115288;-71
2021/03/25 20:04:58;;;;;;;101.80;53.08;;;;;;;7.20;52.04;99491.33;248556;1154;114400;-71
2021/03/25 20:10:11;;;;;;;100.90;51.60;;;;;;;7.11;52.21;99493.44;248492;1154;114956;-70
2021/03/25 20:15:40;;;;;;;105.18;55.43;;;;;;;7.02;53.16;99498.23;248585;1158;114762;-69
2021/03/25 20:20:46;;;;;;;113.53;56.30;;;;;;;6.93;52.79;99503.88;248592;1159;114823;-69
2021/03/25 20:25:58;;;;;;;129.13;61.58;;;;;;;6.82;53.69;99499.88;248612;1154;118158;-69
2021/03/25 20:31:06;;;;;;;119.93;60.45;;;;;;;6.71;53.18;99501.23;248520;1159;115301;-68
2021/03/25 20:36:12;;;;;;;116.65;62.08;;;;;;;6.61;53.51;99516.59;248630;1153;115329;-69
2021/03/25 20:41:17;;;;;;;130.23;66.28;;;;;;;6.51;54.00;99518.71;248535;1161;115482;-69
2021/03/25 20:46:30;;;;;;;128.40;66.40;;;;;;;6.41;53.91;99517.33;248534;1161;115216;-70
2021/03/25 20:51:36;;;;;;;125.78;66.40;;;;;;;6.32;54.29;99522.98;248458;1154;114977;-70
2021/03/25 20:56:48;;;;;;;128.85;67.75;;;;;;;6.22;54.28;99526.88;248619;1153;114979;-69
2021/03/25 21:01:58;;;;;;;130.93;68.48;;;;;;;6.12;54.82;99534.28;248542;1154;114780;-71
2021/03/25 21:07:01;;;;;;;140.68;72.35;;;;;;;6.04;54.19;99538.95;248620;1154;115520;-70
2021/03/25 21:12:05;;;;;;;145.08;73.25;;;;;;;5.94;54.29;99541.05;248583;1154;114757;-67
2021/03/25 21:17:08;;;;;;;149.70;75.13;;;;;;;5.86;55.10;99537.80;248546;1162;115050;-71
2021/03/25 21:22:11;;;;;;;141.75;71.73;;;;;;;5.81;54.97;99543.25;248520;1161;114830;-71
2021/03/25 21:27:13;;;;;;;154.05;76.85;;;;;;;5.74;55.51;99547.02;248572;1155;114852;-69
2021/03/25 21:32:16;;;;;;;148.58;75.48;;;;;;;5.69;55.16;99548.94;248593;1161;114576;-70
2021/03/25 21:37:19;;;;;;;146.90;75.93;;;;;;;5.62;55.62;99555.34;247688;1162;114946;-71
2021/03/25 21:42:22;;;;;;;147.60;74.95;;;;;;;5.54;55.27;99552.11;248726;1154;114588;-71
2021/03/25 21:47:25;;;;;;;142.85;74.63;;;;;;;5.46;55.97;99561.11;248503;1155;114612;-71
2021/03/25 21:52:28;;;;;;;145.88;76.00;;;;;;;5.41;56.25;99552.50;248552;1161;114989;-70
2021/03/25 21:57:31;;;;;;;140.33;73.08;;;;;;;5.33;55.58;99553.65;248621;1152;114615;-69
2021/03/25 22:02:33;;;;;;;152.30;77.18;;;;;;;5.27;55.76;99552.09;248589;1159;114726;-71
2021/03/25 22:07:36;;;;;;;143.73;74.20;;;;;;;5.21;56.29;99555.78;248627;1153;115243;-74
2021/03/25 22:12:42;;;;;;;141.73;74.85;;;;;;;5.16;55.80;99552.44;248630;1154;114858;-68
2021/03/25 22:17:45;;;;;;;157.83;78.08;;;;;;;5.10;56.06;99557.05;248613;1153;114910;-68
2021/03/25 22:22:48;;;;;;;148.47;76.03;;;;;;;5.05;56.45;99559.80;248551;1161;114850;-68
2021/03/25 22:27:51;;;;;;;151.13;79.55;;;;;;;4.98;56.51;99558.27;248543;1155;114870;-69
2021/03/25 22:32:55;;;;;;;154.70;78.70;;;;;;;4.94;56.86;99564.56;248630;1153;114750;-68
2021/03/25 22:38:01;;;;;;;162.88;79.48;;;;;;;4.84;56.57;99558.70;248665;1154;114778;-71
2021/03/25 22:43:06;;;;;;;154.00;78.38;;;;;;;4.81;56.78;99571.11;248595;1154;114998;-69
2021/03/25 22:48:10;;;;;;;161.28;78.05;;;;;;;4.74;56.78;99559.88;248777;1153;114748;-69
2021/03/25 22:53:32;;;;;;;162.68;81.80;;;;;;;4.67;57.12;99564.47;248599;1161;114729;-65
2021/03/25 22:58:36;;;;;;;155.15;78.50;;;;;;;4.62;56.96;99568.14;248729;1153;114788;-66
2021/03/25 23:03:44;;;;;;;160.40;79.98;;;;;;;4.61;57.05;99569.06;248641;1153;115810;-67
2021/03/25 23:08:48;;;;;;;160.00;78.40;;;;;;;4.55;57.19;99574.50;248677;1154;115577;-67
2021/03/25 23:13:51;;;;;;;160.25;77.73;;;;;;;4.51;57.15;99568.45;248692;1159;114951;-67
2021/03/25 23:18:55;;;;;;;158.70;75.95;;;;;;;4.47;57.15;99566.83;248788;1153;114724;-69
2021/03/25 23:24:02;;;;;;;161.45;76.13;;;;;;;4.38;57.15;99570.61;248862;1153;114640;-70
2021/03/25 23:29:17;;;;;;;151.33;77.13;;;;;;;4.28;57.52;99569.13;248791;1153;114851;-69